Melita — V7VX8 — position and weather

sailwx.info

Track history (hours):
 
Tides and Currents Weather Stations Pressure Air Temp Water Temp Dewpoint Dewpoint Depression Visibility Wind Speed Wind Dir Waves Ship Positions

Melita

Last reported at 2016-Dec-08 21:27 UTC. Time now 2016-Dec-08 22:09 UTC.
Position N 38°28' W 008°51'.

Length 274 m; draft 8.5 m.

Type: Tanker. MMSI: 538004237.

Date/timePositionNaut miles runAvg speedWind from/ knotsBaromVisibWave heightAir tempDewpointWater temp
2016-Dec-08 21:27N 38°28' W 008°51'0 0.0
2016-Dec-08 19:12N 38°28' W 008°51'0 0.1
2016-Dec-08 18:30N 38°28' W 008°51'0 0.1
2016-Dec-08 15:06N 38°28' W 008°51'0 0.0
2016-Dec-08 14:30N 38°28' W 008°51'0 0.0
2016-Dec-08 13:21N 38°28' W 008°51'0 0.0
2016-Dec-08 12:24N 38°28' W 008°51'0 0.0
2016-Dec-08 10:24N 38°28' W 008°51'0 0.0
2016-Dec-08 09:30N 38°28' W 008°51'0 0.1
2016-Dec-08 06:18N 38°28' W 008°51'0 0.1
2016-Dec-08 03:30N 38°28' W 008°51'0 0.0
2016-Dec-08 02:12N 38°28' W 008°51'0 0.0
2016-Dec-07 23:30N 38°28' W 008°51'0 0.1
2016-Dec-07 19:30N 38°28' W 008°51'0 0.0
2016-Dec-07 18:18N 38°28' W 008°51'0 0.0
2016-Dec-07 17:33N 38°28' W 008°51'0 0.0
2016-Dec-07 16:27N 38°28' W 008°51'0 0.2
2016-Dec-07 15:12N 38°28' W 008°51'0 0.0
2016-Dec-07 12:27N 38°28' W 008°51'0 0.0
2016-Dec-07 11:30N 38°28' W 008°51'0 0.1
2016-Dec-07 07:18N 38°28' W 008°51'0 0.0
2016-Dec-07 06:21N 38°28' W 008°51'0 0.0
2016-Dec-07 05:33N 38°28' W 008°51'0 0.0
2016-Dec-07 04:30N 38°28' W 008°51'0 0.0
2016-Dec-07 03:27N 38°28' W 008°51'0 0.1
2016-Dec-07 01:33N 38°28' W 008°51'0 0.0
2016-Dec-06 23:30N 38°28' W 008°51'0 0.0
2016-Dec-06 21:24N 38°28' W 008°51'0 0.3
2016-Dec-06 20:27N 38°28' W 008°51'0 0.0
2016-Dec-06 18:18N 38°28' W 008°51'0 0.0
2016-Dec-06 16:27N 38°28' W 008°51'0 0.1
2016-Dec-06 14:06N 38°28' W 008°51'0 0.1
2016-Dec-06 11:33N 38°28' W 008°51'5 4.1
2016-Dec-06 10:16N 38°27' W 008°58'4 5.6
2016-Dec-06 09:33N 38°24' W 009°01'5 4.7
2016-Dec-06 08:32N 38°22' W 009°06'6 6.0
2016-Dec-06 07:33N 38°19' W 009°13'8 8.2
2016-Dec-06 06:33N 38°18' W 009°23'1211.7
2016-Dec-06 05:33N 38°15' W 009°38'1312.7
2016-Dec-06 04:33N 38°13' W 009°54'1312.5
2016-Dec-06 03:33N 38°10' W 010°09'1312.7
2016-Dec-06 02:33N 38°07' W 010°25'  
Track history (hours):
 
Tides and Currents Weather Stations Pressure Air Temp Water Temp Dewpoint Dewpoint Depression Visibility Wind Speed Wind Dir Waves Ship Positions

Melita

Last reported at 2016-Dec-08 21:27 UTC. Time now 2016-Dec-08 22:09 UTC.
Position N 38°28' W 008°51'.

Length 274 m; draft 8.5 m.

Type: Tanker. MMSI: 538004237.

Date/timePositionNaut miles runAvg speedWind from/ knotsBaromVisibWave heightAir tempDewpointWater temp
2016-Dec-08 21:27N 38°28' W 008°51'0 0.0
2016-Dec-08 19:12N 38°28' W 008°51'0 0.1
2016-Dec-08 18:30N 38°28' W 008°51'0 0.1
2016-Dec-08 15:06N 38°28' W 008°51'0 0.0
2016-Dec-08 14:30N 38°28' W 008°51'0 0.0
2016-Dec-08 13:21N 38°28' W 008°51'0 0.0
2016-Dec-08 12:24N 38°28' W 008°51'0 0.0
2016-Dec-08 10:24N 38°28' W 008°51'0 0.0
2016-Dec-08 09:30N 38°28' W 008°51'0 0.1
2016-Dec-08 06:18N 38°28' W 008°51'0 0.1
2016-Dec-08 03:30N 38°28' W 008°51'0 0.0
2016-Dec-08 02:12N 38°28' W 008°51'0 0.0
2016-Dec-07 23:30N 38°28' W 008°51'0 0.1
2016-Dec-07 19:30N 38°28' W 008°51'0 0.0
2016-Dec-07 18:18N 38°28' W 008°51'0 0.0
2016-Dec-07 17:33N 38°28' W 008°51'0 0.0
2016-Dec-07 16:27N 38°28' W 008°51'0 0.2
2016-Dec-07 15:12N 38°28' W 008°51'0 0.0
2016-Dec-07 12:27N 38°28' W 008°51'0 0.0
2016-Dec-07 11:30N 38°28' W 008°51'0 0.1
2016-Dec-07 07:18N 38°28' W 008°51'0 0.0
2016-Dec-07 06:21N 38°28' W 008°51'0 0.0
2016-Dec-07 05:33N 38°28' W 008°51'0 0.0
2016-Dec-07 04:30N 38°28' W 008°51'0 0.0
2016-Dec-07 03:27N 38°28' W 008°51'0 0.1
2016-Dec-07 01:33N 38°28' W 008°51'0 0.0
2016-Dec-06 23:30N 38°28' W 008°51'0 0.0
2016-Dec-06 21:24N 38°28' W 008°51'0 0.3
2016-Dec-06 20:27N 38°28' W 008°51'0 0.0
2016-Dec-06 18:18N 38°28' W 008°51'0 0.0
2016-Dec-06 16:27N 38°28' W 008°51'0 0.1
2016-Dec-06 14:06N 38°28' W 008°51'0 0.1
2016-Dec-06 11:33N 38°28' W 008°51'5 4.1
2016-Dec-06 10:16N 38°27' W 008°58'4 5.6
2016-Dec-06 09:33N 38°24' W 009°01'5 4.7
2016-Dec-06 08:32N 38°22' W 009°06'6 6.0
2016-Dec-06 07:33N 38°19' W 009°13'8 8.2
2016-Dec-06 06:33N 38°18' W 009°23'1211.7
2016-Dec-06 05:33N 38°15' W 009°38'1312.7
2016-Dec-06 04:33N 38°13' W 009°54'1312.5
2016-Dec-06 03:33N 38°10' W 010°09'1312.7
2016-Dec-06 02:33N 38°07' W 010°25'  

Dump ship's entire track history